Weather reports worldwide

Advertisment
Roquetas de Mar, Spain (8492): temperature & dewpoint: 09.12.2019 01:00:00 - 15.12.2019 01:00:00 (CET)Roquetas de Mar, Spain (8492): wind speed & gusts: 09.12.2019 01:00:00 - 15.12.2019 01:00:00 (CET)Roquetas de Mar, Spain (8492): wind direction: 09.12.2019 01:00:00 - 15.12.2019 01:00:00 (CET)Roquetas de Mar, Spain (8492): visibility: 09.12.2019 01:00:00 - 15.12.2019 01:00:00 (CET)Roquetas de Mar, Spain (8492): sunshine duration: 09.12.2019 01:00:00 - 15.12.2019 01:00:00 (CET)Roquetas de Mar, Spain (8492): precipitation: 09.12.2019 01:00:00 - 15.12.2019 01:00:00 (CET)
Date & Time tt [°C] td [°C] ff [km/h] ff [kn] fx [km/h] fx [kn] dd vv [km] sd [min] rr [mm]
15.12.2019 01:00:00 - - - - - - - - - -
15.12.2019 00:00:00 9,4 7,7 9 5 11 6 NE 18 0 0,0
14.12.2019 23:00:00 10,0 7,9 8 5 10 5 NNE 11 0 0,0
14.12.2019 22:00:00 10,1 7,9 6 4 9 5 NNE 18 0 0,0
14.12.2019 21:00:00 11,4 8,8 3 1 9 5 NW 20 0 0,0
14.12.2019 20:00:00 13,4 10,4 5 3 12 6 WSW 20 0 0,0
14.12.2019 19:00:00 14,7 11,1 9 5 24 13 W 20 0 -
14.12.2019 18:00:00 16,4 11,8 19 10 33 18 W 20 0 0,0
14.12.2019 17:00:00 17,1 11,8 24 13 40 21 W 20 0 0,0
14.12.2019 16:00:00 19,0 11,6 8 5 20 11 W 20 0 0,0
14.12.2019 15:00:00 18,1 11,4 5 3 14 7 SE 20 0 0,0
14.12.2019 14:00:00 18,7 12,5 8 5 20 11 ESE 20 0 0,0
14.12.2019 13:00:00 17,9 12,6 14 8 21 11 NE 20 0 -
14.12.2019 12:00:00 16,6 13,9 10 5 15 8 E 20 0 0,0
14.12.2019 11:00:00 14,0 12,4 5 3 9 5 ENE 20 0 0,0
14.12.2019 10:00:00 11,3 9,9 7 4 10 6 N 20 0 0,0
14.12.2019 09:00:00 9,7 8,1 8 5 16 9 NNW 20 0 0,0
14.12.2019 08:00:00 10,7 9,0 9 5 18 10 NNE 20 0 0,0
14.12.2019 07:00:00 7,1 5,3 7 4 10 6 ENE 20 0 -
14.12.2019 06:00:00 7,5 5,5 8 4 14 8 NNE 20 0 0,0
14.12.2019 05:00:00 7,3 5,1 6 3 9 5 NE 20 0 0,0
14.12.2019 04:00:00 8,0 5,8 7 4 12 6 N 20 0 0,0
14.12.2019 03:00:00 9,1 6,7 4 2 13 7 E 20 0 0,0
14.12.2019 02:00:00 9,9 7,2 6 4 14 8 NE 20 0 0,0
14.12.2019 01:00:00 12,9 9,7 6 4 13 7 W 6 0 -
14.12.2019 00:00:00 12,6 9,2 5 3 19 10 NW 20 0 0,0
13.12.2019 23:00:00 14,8 9,8 14 7 29 16 ENE 20 0 0,0
13.12.2019 22:00:00 15,6 11,0 19 10 34 18 ENE 20 0 0,0
13.12.2019 21:00:00 15,6 11,4 16 9 29 16 NE 20 0 0,0
13.12.2019 20:00:00 14,7 11,3 16 9 24 13 NE 20 0 0,0
13.12.2019 19:00:00 14,5 9,9 11 6 16 9 ENE 13 0 -
13.12.2019 18:00:00 16,1 9,5 3 2 39 21 N 20 0 0,0
13.12.2019 17:00:00 17,6 10,5 24 13 51 27 W 12 0 0,0
13.12.2019 16:00:00 17,6 10,2 30 16 72 39 W 20 0 0,0
13.12.2019 15:00:00 17,8 10,2 42 23 71 38 W 14 0 0,0
13.12.2019 14:00:00 17,6 10,2 46 25 71 39 W 16 0 0,0
13.12.2019 13:00:00 17,3 10,7 49 26 81 44 W 14 0 -
13.12.2019 12:00:00 17,3 11,1 60 33 90 49 W 9 0 0,0
13.12.2019 11:00:00 16,9 12,0 49 27 82 44 W 20 0 0,0
13.12.2019 10:00:00 16,5 12,9 51 27 81 44 W 12 0 0,0
13.12.2019 09:00:00 16,3 12,7 43 23 77 42 W 12 0 0,0
13.12.2019 08:00:00 16,2 12,8 53 29 84 45 W 11 0 0,2
13.12.2019 07:00:00 16,3 12,7 47 26 76 41 W 10 0 -
13.12.2019 06:00:00 16,0 12,0 46 25 76 41 W 20 0 0,0
13.12.2019 05:00:00 16,1 11,7 44 24 85 46 W 20 0 0,0
13.12.2019 04:00:00 16,3 11,3 42 23 74 40 W 17 0 0,0
13.12.2019 03:00:00 15,9 9,8 23 12 43 23 W 20 0 0,0
13.12.2019 02:00:00 15,7 8,9 31 17 60 33 W 20 0 0,0
13.12.2019 01:00:00 15,8 9,9 39 21 68 37 W 20 0 -
13.12.2019 00:00:00 13,4 9,1 25 13 49 26 W 20 0 0,0
12.12.2019 23:00:00 12,6 6,9 12 7 29 16 WNW 20 0 0,0
12.12.2019 22:00:00 12,3 7,8 5 3 12 6 WSW 7 0 0,0
12.12.2019 21:00:00 11,8 6,3 6 3 15 8 NNW 20 0 0,0
12.12.2019 20:00:00 13,4 6,7 3 2 29 16 W 20 0 0,0
12.12.2019 19:00:00 13,5 6,8 6 3 11 6 W 17 0 -
12.12.2019 18:00:00 15,9 7,7 3 2 16 9 SE 20 0 0,0
12.12.2019 17:00:00 17,2 5,8 1 1 17 9 S 20 0 0,0
12.12.2019 16:00:00 18,2 4,8 3 1 16 9 SSE 20 0 0,0
12.12.2019 15:00:00 18,2 6,4 8 4 17 9 E 20 0 0,0
12.12.2019 14:00:00 17,5 7,3 4 2 26 14 SSW 20 0 0,0
12.12.2019 13:00:00 16,4 7,4 19 10 29 16 SW 20 0 -
12.12.2019 12:00:00 16,5 10,1 5 3 10 6 S 20 0 0,0
12.12.2019 11:00:00 14,3 9,9 1 1 13 7 NNW 20 0 0,0
12.12.2019 10:00:00 11,5 8,5 8 5 14 8 W 20 0 0,0
12.12.2019 09:00:00 9,3 6,2 10 5 16 8 NNW 20 0 0,0
12.12.2019 08:00:00 9,9 7,0 11 6 17 9 N 20 0 0,0
12.12.2019 07:00:00 10,0 7,3 11 6 15 8 NNE 20 0 -
12.12.2019 06:00:00 9,6 7,0 11 6 15 8 NNE 20 0 0,0
12.12.2019 05:00:00 10,0 7,6 10 5 16 9 NNE 20 0 0,0
12.12.2019 04:00:00 10,7 8,5 11 6 19 10 NE 20 0 0,0
12.12.2019 03:00:00 10,7 8,6 8 4 13 7 NE 20 0 0,0
12.12.2019 02:00:00 9,5 7,5 8 4 11 6 NNE 20 0 0,0
12.12.2019 01:00:00 11,2 9,1 10 5 16 9 NE 20 0 -
12.12.2019 00:00:00 12,1 10,0 9 5 23 12 NW 20 0 0,0
11.12.2019 23:00:00 12,8 10,5 11 6 18 10 WNW 20 0 0,0
11.12.2019 22:00:00 12,8 10,5 8 4 18 10 ENE 20 0 0,0
11.12.2019 21:00:00 13,0 10,5 12 7 19 10 NE 20 0 0,0
11.12.2019 20:00:00 13,7 10,7 13 7 17 9 ENE 17 0 0,0
11.12.2019 19:00:00 15,7 11,1 8 4 13 7 E 7 0 -
11.12.2019 18:00:00 18,3 11,1 3 1 12 6 N 20 0 0,0
11.12.2019 17:00:00 18,5 11,6 6 4 12 6 ESE 20 0 0,0
11.12.2019 16:00:00 18,8 11,1 2 1 15 8 W 20 0 0,0
11.12.2019 15:00:00 18,2 13,3 8 5 19 10 WSW 20 0 0,0
11.12.2019 14:00:00 17,8 13,3 10 6 21 11 W 20 0 0,0
11.12.2019 13:00:00 16,8 13,3 9 5 15 8 WSW 20 0 -
11.12.2019 12:00:00 16,2 14,4 6 3 11 6 ESE 20 0 0,0
11.12.2019 11:00:00 14,0 12,7 6 3 11 6 NNE 20 0 0,0
11.12.2019 10:00:00 12,0 10,7 8 4 59 32 NNE 20 0 0,0
11.12.2019 09:00:00 8,7 7,6 11 6 16 9 NNE 20 0 0,0
11.12.2019 08:00:00 8,2 7,0 10 5 13 7 NE 20 0 0,0
11.12.2019 07:00:00 8,0 6,8 10 5 11 6 NE 8 0 -
11.12.2019 06:00:00 8,7 7,3 5 3 9 5 N 16 0 0,0
11.12.2019 05:00:00 8,4 7,0 7 4 12 6 NNW 20 0 0,0
11.12.2019 04:00:00 9,2 7,6 7 4 11 6 NNW 13 0 0,0
11.12.2019 03:00:00 9,9 8,3 10 5 13 7 NNW 15 0 0,0
11.12.2019 02:00:00 13,4 11,6 8 4 25 14 NW 8 0 0,0
11.12.2019 01:00:00 10,9 9,3 10 6 16 8 WNW 13 0 -
11.12.2019 00:00:00 10,5 8,8 7 4 13 7 NNW 7 0 0,0
10.12.2019 23:00:00 12,0 10,1 9 5 22 12 NW 13 0 0,0
10.12.2019 22:00:00 14,5 12,5 16 9 23 12 W 20 0 0,0
10.12.2019 21:00:00 14,7 12,6 16 9 26 14 W 20 0 0,0
10.12.2019 20:00:00 14,6 12,3 18 10 31 17 W 20 0 0,0
10.12.2019 19:00:00 15,1 12,2 19 10 29 16 W 20 0 -
10.12.2019 18:00:00 16,3 12,8 16 9 26 14 W 20 0 0,0
10.12.2019 17:00:00 17,3 13,8 14 8 28 15 W 20 0 0,0
10.12.2019 16:00:00 17,7 13,8 16 9 30 16 W 20 0 0,0
10.12.2019 15:00:00 17,7 12,8 18 10 28 15 W 20 0 0,0
10.12.2019 14:00:00 17,3 13,2 19 10 25 14 W 20 0 0,2
10.12.2019 13:00:00 17,6 14,9 8 4 15 8 WSW 20 0 -
10.12.2019 12:00:00 16,7 15,1 5 3 11 6 W 20 0 0,0
10.12.2019 11:00:00 15,4 14,3 4 2 10 5 W 20 0 0,0
10.12.2019 10:00:00 11,6 10,7 7 4 11 6 NNW 20 0 0,0
10.12.2019 09:00:00 7,4 6,3 9 5 11 6 N 20 0 0,0
10.12.2019 08:00:00 7,2 6,1 6 3 8 5 N 20 0 0,0
10.12.2019 07:00:00 8,4 7,3 3 2 9 5 N 20 0 -
10.12.2019 06:00:00 9,6 8,4 7 4 11 6 N 20 0 0,0
10.12.2019 05:00:00 10,8 9,6 9 5 15 8 NNE 11 0 0,0
10.12.2019 04:00:00 12,7 11,4 11 6 15 8 ENE 9 0 0,0
10.12.2019 03:00:00 11,0 9,6 9 5 13 7 NE 20 0 0,0
10.12.2019 02:00:00 11,6 10,2 6 3 10 5 N 6 0 0,0
10.12.2019 01:00:00 12,3 10,7 5 3 11 6 NW 8 0 -
10.12.2019 00:00:00 12,0 10,4 11 6 14 7 W 12 0 0,0
09.12.2019 23:00:00 11,6 9,9 4 2 11 6 NE 9 0 0,0
09.12.2019 22:00:00 12,6 10,7 9 5 12 7 NW 8 0 0,0
09.12.2019 21:00:00 13,0 10,9 6 3 10 6 WNW 17 0 0,0
09.12.2019 20:00:00 13,5 11,2 6 3 19 10 N 18 0 0,0
09.12.2019 19:00:00 16,6 13,9 11 6 19 11 W 20 0 -
09.12.2019 18:00:00 17,5 13,6 10 5 24 13 W 20 0 0,0
09.12.2019 17:00:00 18,8 14,3 9 5 19 10 WSW 20 0 0,0
09.12.2019 16:00:00 19,2 13,8 13 7 20 11 WSW 20 0 0,0
09.12.2019 15:00:00 18,6 13,7 9 5 18 10 WSW 20 0 0,0
09.12.2019 14:00:00 18,6 13,9 8 5 16 8 WSW 20 0 0,0
09.12.2019 13:00:00 18,5 13,8 6 3 16 8 WSW 20 0 -
09.12.2019 12:00:00 17,5 13,2 6 3 13 7 SSW 20 0 0,0
09.12.2019 11:00:00 15,3 13,5 2 1 8 4 WNW 20 0 0,0
09.12.2019 10:00:00 12,4 11,1 3 1 14 8 W 20 0 0,0
09.12.2019 09:00:00 9,0 7,6 4 2 13 7 N 20 0 0,0
09.12.2019 08:00:00 8,6 7,1 4 2 11 6 NE 12 0 0,0
09.12.2019 07:00:00 9,8 8,4 8 4 15 8 NNW 14 0 -
09.12.2019 06:00:00 9,9 8,5 10 5 14 8 N 16 0 0,0
09.12.2019 05:00:00 10,1 8,7 8 4 15 8 NNE 6 0 0,0
09.12.2019 04:00:00 10,1 8,5 9 5 13 7 N 3,8 0 0,0
09.12.2019 03:00:00 10,6 9,0 6 3 14 8 NNW 9 0 0,0
09.12.2019 02:00:00 10,7 9,1 6 4 14 7 NNE 4,4 0 0,0
09.12.2019 01:00:00 11,1 9,4 6 3 9 5 N 7 0 -

tt = temperature
td = dewpoint
ff = wind speed
fx = gusts
dd = wind direction
vv = visibility
sd = sunshine duration
rr = precipitation

Next stations